createdAt,value
2022-10-10T00:01:37.453Z,98553.25
2022-10-10T00:04:06.479Z,98559.42
2022-10-10T00:06:34.763Z,98553.63
2022-10-10T00:09:05.812Z,98549.13
2022-10-10T00:11:35.470Z,98547.76
2022-10-10T00:14:03.938Z,98548.77
2022-10-10T00:16:32.115Z,98550.27
2022-10-10T00:18:59.995Z,98553.27
2022-10-10T00:21:28.898Z,98555.43
2022-10-10T00:23:56.761Z,98552.05
2022-10-10T00:26:24.884Z,98551.73
2022-10-10T00:28:55.085Z,98555.85
2022-10-10T00:31:23.106Z,98560.40
2022-10-10T00:33:51.642Z,98556.39
2022-10-10T00:36:21.455Z,98555.98
2022-10-10T00:38:49.497Z,98561.44
2022-10-10T00:41:17.978Z,98562.20
2022-10-10T00:44:01.938Z,98561.77
2022-10-10T00:46:29.798Z,98564.83
2022-10-10T00:48:57.918Z,98560.71
2022-10-10T00:51:26.046Z,98557.16
2022-10-10T00:54:02.401Z,98554.35
2022-10-10T00:56:46.717Z,98559.84
2022-10-10T00:59:15.466Z,98560.90
2022-10-10T01:01:43.548Z,98566.16
2022-10-10T01:04:30.951Z,98567.42
2022-10-10T01:07:00.889Z,98562.14
2022-10-10T01:09:29.863Z,98559.30
2022-10-10T01:12:20.028Z,98559.55
2022-10-10T01:15:02.944Z,98553.39
2022-10-10T01:17:37.581Z,98554.56
2022-10-10T01:20:24.252Z,98556.54
2022-10-10T01:23:29.501Z,98551.46
2022-10-10T01:26:32.670Z,98552.81
2022-10-10T01:29:18.601Z,98551.70
2022-10-10T01:31:51.348Z,98547.83
2022-10-10T01:34:37.921Z,98546.44
2022-10-10T01:37:37.465Z,98543.04
2022-10-10T01:40:20.451Z,98542.42
2022-10-10T01:42:56.408Z,98545.90
2022-10-10T01:45:25.505Z,98548.93
2022-10-10T01:47:57.099Z,98545.30
2022-10-10T01:50:26.845Z,98544.88
2022-10-10T01:52:57.923Z,98546.13
2022-10-10T01:55:44.419Z,98544.53
2022-10-10T01:58:36.301Z,98546.25
2022-10-10T02:01:11.621Z,98549.66
2022-10-10T02:03:45.659Z,98549.35
2022-10-10T02:06:25.655Z,98550.09
2022-10-10T02:09:00.578Z,98554.47
2022-10-10T02:11:35.509Z,98551.29
2022-10-10T02:14:14.641Z,98552.30
2022-10-10T02:16:50.032Z,98552.76
2022-10-10T02:19:21.331Z,98555.04
2022-10-10T02:21:52.820Z,98553.91
2022-10-10T02:24:24.079Z,98555.48
2022-10-10T02:27:18.538Z,98554.30
2022-10-10T02:29:49.094Z,98557.02
2022-10-10T02:32:26.253Z,98558.14
2022-10-10T02:34:58.024Z,98559.64
2022-10-10T02:37:27.756Z,98557.45
2022-10-10T02:39:59.675Z,98560.86
2022-10-10T02:42:29.441Z,98562.39
2022-10-10T02:44:57.858Z,98562.77
2022-10-10T02:47:25.928Z,98566.25
2022-10-10T02:49:53.818Z,98566.98
2022-10-10T02:52:21.893Z,98564.29
2022-10-10T02:54:49.817Z,98565.98
2022-10-10T02:57:17.777Z,98567.06
2022-10-10T02:59:45.869Z,98567.67
2022-10-10T03:02:13.790Z,98568.79
2022-10-10T03:04:42.360Z,98572.74
2022-10-10T03:07:10.889Z,98572.52
2022-10-10T03:09:38.717Z,98576.11
2022-10-10T03:12:06.652Z,98577.64
2022-10-10T03:14:34.718Z,98584.20
2022-10-10T03:17:02.822Z,98580.00
2022-10-10T03:19:30.798Z,98578.84
2022-10-10T03:21:58.760Z,98580.02
2022-10-10T03:24:28.072Z,98580.96
2022-10-10T03:26:56.038Z,98583.95
2022-10-10T03:29:25.438Z,98584.46
2022-10-10T03:31:53.839Z,98590.51
2022-10-10T03:34:21.857Z,98592.68
2022-10-10T03:36:49.956Z,98593.70
2022-10-10T03:39:18.017Z,98594.48
2022-10-10T03:41:45.893Z,98597.92
2022-10-10T03:44:13.765Z,98596.75
2022-10-10T03:46:42.767Z,98594.56
2022-10-10T03:49:11.250Z,98592.94
2022-10-10T03:51:39.504Z,98595.47
2022-10-10T03:54:07.487Z,98597.00
2022-10-10T03:56:35.510Z,98591.50
2022-10-10T03:59:04.106Z,98587.09
2022-10-10T04:01:33.820Z,98586.31
2022-10-10T04:04:02.717Z,98589.23
2022-10-10T04:06:31.057Z,98590.04
2022-10-10T04:08:59.244Z,98592.00
2022-10-10T04:11:27.912Z,98593.71
2022-10-10T04:13:55.788Z,98594.08
2022-10-10T04:16:23.708Z,98596.70
2022-10-10T04:18:51.639Z,98595.58
2022-10-10T04:21:19.609Z,98590.77
2022-10-10T04:23:47.826Z,98589.53
2022-10-10T04:26:15.868Z,98585.20
2022-10-10T04:28:44.226Z,98583.64
2022-10-10T04:31:12.266Z,98582.52
2022-10-10T04:33:40.187Z,98582.07
2022-10-10T04:36:08.364Z,98584.33
2022-10-10T04:38:36.896Z,98600.27
2022-10-10T04:41:05.908Z,98604.70
2022-10-10T04:43:37.672Z,98608.73
2022-10-10T04:46:05.835Z,98607.03
2022-10-10T04:48:33.931Z,98611.98
2022-10-10T04:51:03.203Z,98614.36
2022-10-10T04:53:38.687Z,98614.73
2022-10-10T04:56:07.472Z,98615.52
2022-10-10T04:58:36.239Z,98611.81
2022-10-10T05:01:06.954Z,98611.75
2022-10-10T05:03:35.027Z,98614.41
2022-10-10T05:06:03.261Z,98619.08
2022-10-10T05:08:32.811Z,98614.95
2022-10-10T05:11:00.911Z,98613.08
2022-10-10T05:13:31.375Z,98614.90
2022-10-10T05:16:00.557Z,98617.44
2022-10-10T05:18:28.635Z,98621.05
2022-10-10T05:21:01.045Z,98617.82
2022-10-10T05:23:32.504Z,98623.28
2022-10-10T05:26:01.084Z,98621.12
2022-10-10T05:28:30.533Z,98621.08
2022-10-10T05:30:59.223Z,98620.23
2022-10-10T05:33:27.866Z,98622.66
2022-10-10T05:36:11.070Z,98620.52
2022-10-10T05:38:41.056Z,98620.93
2022-10-10T05:41:12.653Z,98624.20
2022-10-10T05:43:40.737Z,98624.73
2022-10-10T05:46:08.679Z,98625.98
2022-10-10T05:48:37.346Z,98622.61
2022-10-10T05:51:07.882Z,98624.97
2022-10-10T05:53:36.421Z,98627.30
2022-10-10T05:56:04.938Z,98627.98
2022-10-10T05:58:35.250Z,98627.25
2022-10-10T06:01:32.634Z,98627.30
2022-10-10T06:04:14.724Z,98626.27
2022-10-10T06:06:53.562Z,98631.60
2022-10-10T06:09:25.044Z,98632.36
2022-10-10T06:12:00.371Z,98629.75
2022-10-10T06:14:30.688Z,98629.09
2022-10-10T06:17:02.779Z,98628.74
2022-10-10T06:19:33.560Z,98621.18
2022-10-10T06:22:04.273Z,98619.67
2022-10-10T06:24:32.469Z,98618.79
2022-10-10T06:27:02.244Z,98620.16
2022-10-10T06:29:31.039Z,98621.57
2022-10-10T06:32:01.269Z,98621.23
2022-10-10T06:34:29.489Z,98622.14
2022-10-10T06:36:57.641Z,98621.41
2022-10-10T06:39:25.995Z,98617.73
2022-10-10T06:41:54.895Z,98616.45
2022-10-10T06:44:23.529Z,98616.44
2022-10-10T06:46:52.769Z,98613.27
2022-10-10T06:49:20.892Z,98609.26
2022-10-10T06:51:49.432Z,98609.14
2022-10-10T06:54:19.221Z,98614.55
2022-10-10T06:56:50.899Z,98615.64
2022-10-10T06:59:20.418Z,98610.33
2022-10-10T07:01:48.741Z,98619.80
2022-10-10T07:04:16.927Z,98618.74
2022-10-10T07:06:46.385Z,98621.98
2022-10-10T07:09:14.509Z,98618.19
2022-10-10T07:11:45.933Z,98621.73
2022-10-10T07:14:16.563Z,98621.88
2022-10-10T07:16:45.462Z,98619.98
2022-10-10T07:19:13.473Z,98616.25
2022-10-10T07:21:41.672Z,98613.92
2022-10-10T07:24:09.845Z,98609.07
2022-10-10T07:26:38.677Z,98608.26
2022-10-10T07:29:06.976Z,98604.20
2022-10-10T07:31:36.558Z,98604.60
2022-10-10T07:34:07.661Z,98601.74
2022-10-10T07:36:36.239Z,98597.87
2022-10-10T07:39:04.826Z,98600.44
2022-10-10T07:41:33.096Z,98598.22
2022-10-10T07:44:02.223Z,98599.39
2022-10-10T07:46:33.681Z,98602.59
2022-10-10T07:49:03.946Z,98603.61
2022-10-10T07:51:32.797Z,98603.11
2022-10-10T07:54:02.455Z,98603.18
2022-10-10T07:56:32.211Z,98609.14
2022-10-10T07:59:01.128Z,98609.05
2022-10-10T08:01:30.617Z,98608.92
2022-10-10T08:03:59.450Z,98607.14
2022-10-10T08:06:27.497Z,98608.38
2022-10-10T08:08:56.033Z,98609.77
2022-10-10T08:11:29.052Z,98607.09
2022-10-10T08:13:57.124Z,98610.58
2022-10-10T08:16:25.168Z,98608.09
2022-10-10T08:18:53.487Z,98607.27
2022-10-10T08:21:21.668Z,98608.94
2022-10-10T08:23:52.490Z,98608.61
2022-10-10T08:26:20.778Z,98611.39
2022-10-10T08:28:49.253Z,98612.56
2022-10-10T08:31:21.241Z,98611.73
2022-10-10T08:33:51.201Z,98611.15
2022-10-10T08:36:22.187Z,98612.64
2022-10-10T08:38:53.378Z,98612.00
2022-10-10T08:41:36.610Z,98611.98
2022-10-10T08:44:14.392Z,98613.01
2022-10-10T08:47:04.292Z,98609.14
2022-10-10T08:49:45.425Z,98609.05
2022-10-10T08:52:53.908Z,98607.05
2022-10-10T08:55:31.405Z,98608.98
2022-10-10T08:57:59.601Z,98610.23
2022-10-10T09:00:45.222Z,98613.20
2022-10-10T09:03:26.563Z,98610.13
2022-10-10T09:06:19.978Z,98609.19
2022-10-10T09:08:53.983Z,98606.85
2022-10-10T09:11:40.887Z,98605.85
2022-10-10T09:14:45.585Z,98605.14
2022-10-10T09:21:44.046Z,98603.46
2022-10-10T09:24:43.566Z,98602.20
2022-10-10T09:27:22.115Z,98599.11
2022-10-10T09:29:56.987Z,98596.48
2022-10-10T09:32:31.094Z,98592.71
2022-10-10T09:35:06.478Z,98591.17
2022-10-10T09:37:47.688Z,98590.34
2022-10-10T09:40:39.119Z,98585.94
2022-10-10T09:43:22.938Z,98585.61
2022-10-10T09:46:00.015Z,98584.35
2022-10-10T09:48:36.077Z,98583.88
2022-10-10T09:51:07.632Z,98585.18
2022-10-10T09:53:44.971Z,98577.83
2022-10-10T09:56:22.826Z,98575.09
2022-10-10T09:58:53.934Z,98577.15
2022-10-10T10:01:26.383Z,98572.64
2022-10-10T10:04:27.819Z,98566.59
2022-10-10T10:07:07.646Z,98560.90
2022-10-10T10:09:36.627Z,98557.10
2022-10-10T10:12:05.625Z,98547.31
2022-10-10T10:14:39.305Z,98540.41
2022-10-10T10:17:16.024Z,98540.36
2022-10-10T10:19:46.637Z,98540.27
2022-10-10T10:22:40.628Z,98536.37
2022-10-10T10:25:33.974Z,98527.73
2022-10-10T10:28:14.293Z,98523.42
2022-10-10T10:30:44.009Z,98518.77
2022-10-10T10:33:33.429Z,98516.38
2022-10-10T10:36:25.535Z,98512.59
2022-10-10T10:39:20.269Z,98510.30
2022-10-10T10:42:21.504Z,98502.74
2022-10-10T10:45:01.425Z,98500.96
2022-10-10T10:47:52.138Z,98498.75
2022-10-10T10:50:27.356Z,98496.74
2022-10-10T10:53:11.895Z,98488.45
2022-10-10T10:56:08.979Z,98484.14
2022-10-10T11:02:26.529Z,98470.84
2022-10-10T11:05:39.912Z,98463.38
2022-10-10T11:08:25.563Z,98449.20
2022-10-10T11:11:16.926Z,98442.67
2022-10-10T11:14:23.431Z,98446.11
2022-10-10T11:16:59.039Z,98436.94
2022-10-10T11:19:39.612Z,98429.74
2022-10-10T11:22:23.876Z,98423.00
2022-10-10T11:25:03.652Z,98410.89
2022-10-10T11:27:47.241Z,98406.44
2022-10-10T11:30:32.091Z,98404.38
2022-10-10T11:33:19.314Z,98399.60
2022-10-10T11:35:55.541Z,98398.57
2022-10-10T11:38:45.070Z,98398.48
2022-10-10T11:41:28.404Z,98395.02
2022-10-10T11:44:30.651Z,98392.11
2022-10-10T11:47:55.123Z,98389.24
2022-10-10T11:50:35.157Z,98382.70
2022-10-10T11:53:22.877Z,98381.30
2022-10-10T11:56:19.940Z,98380.92
2022-10-10T11:58:58.983Z,98378.72
2022-10-10T12:01:33.879Z,98377.16
2022-10-10T12:04:07.649Z,98373.09
2022-10-10T12:07:11.672Z,98369.38
2022-10-10T12:09:46.016Z,98367.40
2022-10-10T12:12:21.246Z,98364.95
2022-10-10T12:14:54.689Z,98364.91
2022-10-10T12:17:40.475Z,98360.50
2022-10-10T12:20:35.929Z,98357.98
2022-10-10T12:23:14.350Z,98350.10
2022-10-10T12:25:48.207Z,98350.28
2022-10-10T12:28:25.581Z,98349.56
2022-10-10T12:30:58.566Z,98345.52
2022-10-10T12:33:34.046Z,98340.98
2022-10-10T12:36:29.692Z,98347.38
2022-10-10T12:39:18.925Z,98344.14
2022-10-10T12:41:47.802Z,98344.34
2022-10-10T12:44:53.682Z,98346.82
2022-10-10T12:47:59.723Z,98344.23
2022-10-10T12:51:12.878Z,98345.19
2022-10-10T12:53:55.784Z,98340.77
2022-10-10T12:56:59.140Z,98340.68
2022-10-10T12:59:36.902Z,98338.73
2022-10-10T13:02:22.876Z,98336.29
2022-10-10T13:04:56.445Z,98333.80
2022-10-10T13:07:25.693Z,98331.81
2022-10-10T13:10:05.300Z,98331.07
2022-10-10T13:12:45.952Z,98330.91
2022-10-10T13:15:20.586Z,98331.39
2022-10-10T13:17:49.805Z,98329.04
2022-10-10T13:20:41.024Z,98330.78
2022-10-10T13:23:21.575Z,98329.39
2022-10-10T13:25:56.075Z,98326.14
2022-10-10T13:28:25.460Z,98322.80
2022-10-10T13:30:55.857Z,98324.91
2022-10-10T13:33:30.877Z,98328.10
2022-10-10T13:36:07.633Z,98321.38
2022-10-10T13:38:36.192Z,98320.05
2022-10-10T13:41:07.680Z,98323.17
2022-10-10T13:43:36.946Z,98320.30
2022-10-10T13:46:30.686Z,98319.02
2022-10-10T13:49:02.081Z,98317.19
2022-10-10T13:51:48.384Z,98314.37
2022-10-10T13:54:41.574Z,98317.16
2022-10-10T13:57:27.611Z,98320.27
2022-10-10T14:00:33.762Z,98318.73
2022-10-10T14:03:20.126Z,98319.42
2022-10-10T14:05:48.233Z,98317.48
2022-10-10T14:08:20.427Z,98319.20
2022-10-10T14:11:07.812Z,98314.09
2022-10-10T14:13:39.597Z,98310.54
2022-10-10T14:16:18.116Z,98307.70
2022-10-10T14:18:47.032Z,98308.20
2022-10-10T14:21:15.473Z,98311.13
2022-10-10T14:23:45.696Z,98310.16
2022-10-10T14:26:20.020Z,98311.73
2022-10-10T14:28:49.602Z,98313.23
2022-10-10T14:31:19.037Z,98314.13
2022-10-10T14:33:49.866Z,98313.96
2022-10-10T14:36:18.675Z,98314.56
2022-10-10T14:38:46.980Z,98314.95
2022-10-10T14:41:17.592Z,98310.85
2022-10-10T14:43:46.169Z,98312.70
2022-10-10T14:46:19.982Z,98312.98
2022-10-10T14:48:51.183Z,98315.70
2022-10-10T14:51:33.880Z,98315.73
2022-10-10T14:54:10.871Z,98314.91
2022-10-10T14:57:09.505Z,98316.44
2022-10-10T14:59:46.079Z,98316.90
2022-10-10T15:02:22.248Z,98316.52
2022-10-10T15:04:51.113Z,98319.56
2022-10-10T15:07:19.755Z,98316.48
2022-10-10T15:10:27.614Z,98316.70
2022-10-10T15:12:43.017Z,98316.89
2022-10-10T15:15:14.038Z,98313.89
2022-10-10T15:17:48.779Z,98310.00
2022-10-10T15:20:19.237Z,98309.42
2022-10-10T15:22:47.264Z,98311.40
2022-10-10T15:25:16.828Z,98309.88
2022-10-10T15:27:47.528Z,98309.50
2022-10-10T15:30:16.395Z,98308.57
2022-10-10T15:32:45.532Z,98312.06
2022-10-10T15:35:19.113Z,98313.61
2022-10-10T15:37:47.975Z,98314.54
2022-10-10T15:40:20.630Z,98318.39
2022-10-10T15:42:50.403Z,98320.05
2022-10-10T15:45:43.619Z,98317.88
2022-10-10T15:48:07.776Z,98314.45
2022-10-10T15:50:42.581Z,98318.09
2022-10-10T15:53:13.106Z,98316.40
2022-10-10T15:55:46.011Z,98320.58
2022-10-10T15:58:15.267Z,98323.33
2022-10-10T16:00:45.093Z,98323.59
2022-10-10T16:03:16.952Z,98322.96
2022-10-10T16:05:45.543Z,98323.60
2022-10-10T16:08:13.716Z,98328.77
2022-10-10T16:10:43.353Z,98329.70
2022-10-10T16:13:11.806Z,98328.81
2022-10-10T16:15:40.826Z,98324.30
2022-10-10T16:18:09.566Z,98325.69
2022-10-10T16:20:39.316Z,98328.59
2022-10-10T16:23:08.405Z,98332.72
2022-10-10T16:25:36.887Z,98331.16
2022-10-10T16:28:05.153Z,98333.77
2022-10-10T16:30:33.449Z,98339.87
2022-10-10T16:33:01.948Z,98348.30
2022-10-10T16:35:30.078Z,98349.98
2022-10-10T16:38:00.764Z,98349.49
2022-10-10T16:40:30.410Z,98352.88
2022-10-10T16:43:00.847Z,98355.67
2022-10-10T16:45:29.449Z,98356.16
2022-10-10T16:47:58.185Z,98354.94
2022-10-10T16:50:26.359Z,98350.00
2022-10-10T16:52:55.523Z,98354.20
2022-10-10T16:55:23.648Z,98353.39
2022-10-10T16:57:58.699Z,98353.14
2022-10-10T17:00:26.981Z,98355.02
2022-10-10T17:02:54.977Z,98361.27
2022-10-10T17:05:23.090Z,98355.47
2022-10-10T17:07:52.054Z,98360.90
2022-10-10T17:10:20.212Z,98359.27
2022-10-10T17:12:48.289Z,98353.05
2022-10-10T17:15:16.253Z,98355.23
2022-10-10T17:17:45.952Z,98356.20
2022-10-10T17:20:14.336Z,98352.57
2022-10-10T17:22:42.724Z,98349.20
2022-10-10T17:25:11.005Z,98348.33
2022-10-10T17:27:42.158Z,98351.05
2022-10-10T17:30:12.701Z,98350.62
2022-10-10T17:32:42.737Z,98345.64
2022-10-10T17:35:12.161Z,98345.08
2022-10-10T17:37:44.844Z,98340.70
2022-10-10T17:40:13.079Z,98341.89
2022-10-10T17:42:41.167Z,98342.10
2022-10-10T17:45:10.359Z,98350.71
2022-10-10T17:47:38.814Z,98347.86
2022-10-10T17:50:09.438Z,98348.36
2022-10-10T17:52:37.448Z,98348.56
2022-10-10T17:55:06.174Z,98352.11
2022-10-10T17:57:36.714Z,98353.46
2022-10-10T18:00:06.519Z,98362.36
2022-10-10T18:02:34.801Z,98356.42
2022-10-10T18:05:03.495Z,98353.31
2022-10-10T18:07:31.735Z,98350.33
2022-10-10T18:09:59.888Z,98346.23
2022-10-10T18:12:27.916Z,98346.52
2022-10-10T18:14:55.982Z,98349.98
2022-10-10T18:17:26.309Z,98349.45
2022-10-10T18:19:54.575Z,98350.13
2022-10-10T18:22:23.723Z,98353.86
2022-10-10T18:24:54.276Z,98353.39
2022-10-10T18:27:22.846Z,98352.26
2022-10-10T18:29:50.802Z,98352.92
2022-10-10T18:32:18.892Z,98351.25
2022-10-10T18:34:46.854Z,98350.56
2022-10-10T18:37:15.892Z,98351.86
2022-10-10T18:39:44.093Z,98354.75
2022-10-10T18:42:14.804Z,98355.45
2022-10-10T18:44:44.065Z,98347.83
2022-10-10T18:47:12.891Z,98343.82
2022-10-10T18:49:41.598Z,98346.46
2022-10-10T18:52:10.558Z,98349.31
2022-10-10T18:54:38.898Z,98349.83
2022-10-10T18:57:07.189Z,98343.61
2022-10-10T18:59:35.333Z,98349.83
2022-10-10T19:02:03.346Z,98352.27
2022-10-10T19:04:31.573Z,98350.88
2022-10-10T19:07:02.157Z,98348.05
2022-10-10T19:09:30.248Z,98350.31
2022-10-10T19:11:58.209Z,98353.66
2022-10-10T19:14:26.322Z,98351.55
2022-10-10T19:16:55.316Z,98347.78
2022-10-10T19:19:26.599Z,98344.65
2022-10-10T19:21:54.829Z,98350.37
2022-10-10T19:24:22.940Z,98353.62
2022-10-10T19:26:54.971Z,98350.91
2022-10-10T19:29:25.208Z,98360.31
2022-10-10T19:31:54.537Z,98362.35
2022-10-10T19:34:23.646Z,98359.96
2022-10-10T19:36:51.711Z,98360.36
2022-10-10T19:39:19.648Z,98362.67
2022-10-10T19:41:48.170Z,98369.63
2022-10-10T19:44:16.232Z,98366.93
2022-10-10T19:46:44.634Z,98368.57
2022-10-10T19:49:12.660Z,98369.78
2022-10-10T19:51:40.585Z,98369.94
2022-10-10T19:54:08.755Z,98376.39
2022-10-10T19:56:39.043Z,98376.46
2022-10-10T19:59:09.108Z,98373.61
2022-10-10T20:01:37.304Z,98370.17
2022-10-10T20:04:05.372Z,98365.40
2022-10-10T20:06:39.718Z,98372.70
2022-10-10T20:09:10.782Z,98376.39
2022-10-10T20:11:39.888Z,98377.25
2022-10-10T20:14:08.027Z,98378.48
2022-10-10T20:16:36.092Z,98376.68
2022-10-10T20:19:06.952Z,98375.58
2022-10-10T20:21:35.360Z,98369.23
2022-10-10T20:24:07.431Z,98369.68
2022-10-10T20:26:36.634Z,98372.29
2022-10-10T20:29:05.285Z,98371.91
2022-10-10T20:31:35.762Z,98371.88
2022-10-10T20:34:05.619Z,98377.10
2022-10-10T20:36:35.634Z,98383.51
2022-10-10T20:39:08.288Z,98388.34
2022-10-10T20:41:38.357Z,98383.29
2022-10-10T20:44:08.579Z,98376.02
2022-10-10T20:46:39.267Z,98375.21
2022-10-10T20:49:12.943Z,98378.17
2022-10-10T20:51:48.128Z,98382.16
2022-10-10T20:54:18.818Z,98385.82
2022-10-10T20:56:50.914Z,98381.33
2022-10-10T20:59:21.052Z,98378.31
2022-10-10T21:01:51.910Z,98382.67
2022-10-10T21:04:20.069Z,98384.10
2022-10-10T21:06:48.129Z,98381.08
2022-10-10T21:09:16.243Z,98382.73
2022-10-10T21:11:48.717Z,98385.36
2022-10-10T21:14:19.026Z,98382.48
2022-10-10T21:16:50.592Z,98382.55
2022-10-10T21:19:18.501Z,98384.64
2022-10-10T21:21:46.877Z,98384.92
2022-10-10T21:24:15.507Z,98387.48
2022-10-10T21:26:45.476Z,98388.80
2022-10-10T21:29:16.414Z,98391.90
2022-10-10T21:31:44.531Z,98390.48
2022-10-10T21:34:18.820Z,98389.44
2022-10-10T21:36:46.891Z,98383.13
2022-10-10T21:39:15.449Z,98380.13
2022-10-10T21:41:43.730Z,98375.85
2022-10-10T21:44:15.906Z,98376.61
2022-10-10T21:46:43.884Z,98371.79
2022-10-10T21:49:13.991Z,98373.60
2022-10-10T21:51:45.750Z,98374.30
2022-10-10T21:54:14.738Z,98378.17
2022-10-10T21:56:42.552Z,98379.40
2022-10-10T21:59:11.783Z,98371.08
2022-10-10T22:01:39.738Z,98365.95
2022-10-10T22:04:08.393Z,98364.55
2022-10-10T22:06:36.400Z,98365.59
2022-10-10T22:09:05.252Z,98362.14
2022-10-10T22:11:34.870Z,98362.25
2022-10-10T22:14:04.513Z,98366.86
2022-10-10T22:16:33.148Z,98358.56
2022-10-10T22:19:03.849Z,98356.67
2022-10-10T22:21:34.717Z,98359.96
2022-10-10T22:24:06.641Z,98360.14
2022-10-10T22:26:35.375Z,98363.10
2022-10-10T22:29:04.584Z,98360.30
2022-10-10T22:31:35.655Z,98356.14
2022-10-10T22:34:05.978Z,98357.95
2022-10-10T22:36:34.069Z,98360.28
2022-10-10T22:39:03.494Z,98363.13
2022-10-10T22:41:31.751Z,98362.13
2022-10-10T22:43:59.860Z,98360.00
2022-10-10T22:46:27.832Z,98360.85
2022-10-10T22:48:55.823Z,98361.08
2022-10-10T22:51:23.869Z,98367.08
2022-10-10T22:53:52.115Z,98370.27
2022-10-10T22:56:20.756Z,98370.54
2022-10-10T22:58:50.474Z,98368.73
2022-10-10T23:01:21.649Z,98368.26
2022-10-10T23:03:50.194Z,98370.88
2022-10-10T23:06:18.125Z,98368.71
2022-10-10T23:08:46.616Z,98367.27
2022-10-10T23:11:16.127Z,98359.98
2022-10-10T23:13:44.307Z,98358.11
2022-10-10T23:16:15.033Z,98362.05
2022-10-10T23:18:42.985Z,98370.02
2022-10-10T23:21:11.026Z,98366.59
2022-10-10T23:23:39.024Z,98362.86
2022-10-10T23:26:09.072Z,98363.45
2022-10-10T23:28:37.213Z,98360.65
2022-10-10T23:31:08.148Z,98360.91
2022-10-10T23:33:37.245Z,98364.66
2022-10-10T23:36:10.856Z,98365.20
2022-10-10T23:38:39.754Z,98362.09
2022-10-10T23:41:09.103Z,98359.35
2022-10-10T23:43:37.336Z,98361.83
2022-10-10T23:46:05.755Z,98364.81
2022-10-10T23:48:34.150Z,98364.55
2022-10-10T23:51:02.073Z,98363.94
2022-10-10T23:53:29.997Z,98361.60
2022-10-10T23:55:57.823Z,98361.92
2022-10-10T23:58:26.070Z,98363.98
